Time;durP1;ratioP1;P1;durP2;ratioP2;P2;SDS_P1;SDS_P2;PMS_P1;PMS_P2;Temp;Humidity;BMP_temperature;BMP_pressure;BME280_temperature;BME280_humidity;BME280_pressure;Samples;Min_cycle;Max_cycle;Signal;HPM_P1;HPM_P2
2024/01/15 05:56:07;;;;;;;19.10;7.60;;;-1.70;99.90;;;;;;7599997;19;20400;-74
2024/01/15 05:58:39;;;;;;;17.13;8.18;;;-1.70;99.90;;;;;;7588274;19;20014;-77
2024/01/15 06:01:11;;;;;;;19.05;8.50;;;-1.70;99.90;;;;;;7600439;19;20022;-75
2024/01/15 06:03:44;;;;;;;12.47;6.47;;;-1.60;99.90;;;;;;7585048;19;20010;-75
2024/01/15 06:06:16;;;;;;;22.17;9.27;;;-1.60;99.90;;;;;;7566564;19;20362;-75
2024/01/15 06:08:49;;;;;;;19.17;8.67;;;-1.50;99.90;;;;;;7575496;19;21474;-74
2024/01/15 06:11:21;;;;;;;20.33;7.53;;;-1.40;99.90;;;;;;7583339;19;20986;-75
2024/01/15 06:13:54;;;;;;;18.08;8.15;;;-1.30;99.90;;;;;;7585088;19;20670;-75
2024/01/15 06:16:27;;;;;;;20.77;8.43;;;-1.30;99.90;;;;;;7575653;19;20014;-75
2024/01/15 06:19:00;;;;;;;17.35;7.68;;;-1.30;99.90;;;;;;7585235;19;20014;-76
2024/01/15 06:21:33;;;;;;;14.63;7.30;;;-1.30;99.90;;;;;;7585891;19;20010;-73
2024/01/15 06:24:05;;;;;;;18.45;7.85;;;-1.30;99.90;;;;;;7609871;19;20060;-74
2024/01/15 06:26:38;;;;;;;18.15;8.02;;;-1.30;99.90;;;;;;7613037;19;20053;-74
2024/01/15 06:29:11;;;;;;;14.03;6.77;;;-1.30;99.90;;;;;;7627063;19;20025;-73
2024/01/15 06:31:43;;;;;;;16.10;8.03;;;-1.20;99.90;;;;;;7604990;19;21098;-76
2024/01/15 06:34:15;;;;;;;17.20;8.18;;;-1.20;99.90;;;;;;7602439;19;20603;-74
2024/01/15 06:36:48;;;;;;;19.80;7.90;;;-1.20;99.90;;;;;;7606795;19;20021;-75
2024/01/15 06:39:21;;;;;;;15.88;7.50;;;-1.20;99.90;;;;;;7613142;19;20082;-76
2024/01/15 06:41:54;;;;;;;17.67;7.05;;;-1.10;99.90;;;;;;7617994;19;20054;-74
2024/01/15 06:44:26;;;;;;;18.02;7.57;;;-1.10;99.90;;;;;;7610309;19;20858;-76
2024/01/15 06:47:02;;;;;;;21.77;8.02;;;-1.10;99.90;;;;;;7614013;19;20183;-75
2024/01/15 06:49:34;;;;;;;21.55;8.10;;;-1.20;99.90;;;;;;7626787;19;20472;-75
2024/01/15 06:52:07;;;;;;;20.43;7.67;;;-1.10;99.90;;;;;;7620831;19;20567;-76
2024/01/15 06:54:39;;;;;;;18.08;8.07;;;-1.20;99.90;;;;;;7631758;19;20044;-75
2024/01/15 06:57:12;;;;;;;17.88;8.35;;;-1.20;99.90;;;;;;7633995;19;20679;-73
2024/01/15 06:59:44;;;;;;;14.88;7.35;;;-1.20;99.90;;;;;;7622153;19;20022;-75
2024/01/15 07:02:16;;;;;;;19.83;8.38;;;-1.20;99.90;;;;;;7622892;19;20018;-75
2024/01/15 07:04:48;;;;;;;18.05;7.28;;;-1.20;99.90;;;;;;7615185;19;20006;-75
2024/01/15 07:07:21;;;;;;;22.08;7.57;;;-1.20;99.90;;;;;;7595245;19;20014;-74
2024/01/15 07:09:53;;;;;;;19.30;8.60;;;-1.10;99.90;;;;;;7598124;19;20474;-75
2024/01/15 07:12:26;;;;;;;20.33;8.75;;;-0.60;99.90;;;;;;7594196;19;20014;-76
2024/01/15 07:14:58;;;;;;;16.45;7.45;;;-1.20;99.90;;;;;;7592233;19;20008;-75
2024/01/15 07:17:31;;;;;;;15.68;7.32;;;-1.10;99.90;;;;;;7601482;19;20022;-74
2024/01/15 07:20:07;;;;;;;17.20;7.97;;;-1.20;99.90;;;;;;7585729;19;20006;-74
2024/01/15 07:22:40;;;;;;;21.67;7.85;;;-1.10;99.90;;;;;;7582817;19;20027;-77
2024/01/15 07:25:13;;;;;;;16.45;6.57;;;-1.10;99.90;;;;;;7581267;19;20052;-76
2024/01/15 07:27:46;;;;;;;22.10;8.87;;;-1.10;99.90;;;;;;7596351;19;20021;-75
2024/01/15 07:30:21;;;;;;;17.77;7.75;;;-1.00;99.90;;;;;;7577584;19;20040;-75
2024/01/15 07:32:54;;;;;;;16.65;7.47;;;-1.00;99.90;;;;;;7592081;19;20010;-75
2024/01/15 07:35:26;;;;;;;18.40;8.20;;;-1.00;99.90;;;;;;7566405;19;20362;-76
2024/01/15 07:37:59;;;;;;;19.60;8.30;;;-3.00;99.90;;;;;;7585495;19;20018;-74
2024/01/15 07:40:31;;;;;;;19.20;8.10;;;-1.00;99.90;;;;;;7591133;19;20007;-75
2024/01/15 07:43:03;;;;;;;18.90;7.72;;;-1.00;99.90;;;;;;7567558;19;20063;-75
2024/01/15 07:45:36;;;;;;;16.60;7.32;;;-0.90;99.90;;;;;;7580902;19;20053;-76
2024/01/15 07:48:09;;;;;;;17.07;8.33;;;1.00;99.90;;;;;;7571056;19;20054;-74
2024/01/15 07:50:42;;;;;;;17.20;7.25;;;0.00;99.90;;;;;;7596009;19;20014;-75
2024/01/15 07:53:15;;;;;;;17.67;7.72;;;-0.90;99.90;;;;;;7598052;19;21024;-76
2024/01/15 07:55:47;;;;;;;18.10;8.10;;;-0.60;99.90;;;;;;7588972;19;20659;-79
2024/01/15 07:58:20;;;;;;;14.55;6.68;;;-0.90;99.90;;;;;;7629380;19;20552;-78
2024/01/15 08:00:52;;;;;;;22.73;8.00;;;-0.70;99.90;;;;;;7628807;19;20043;-77
2024/01/15 08:03:25;;;;;;;16.20;7.18;;;-0.90;99.90;;;;;;7634220;19;20043;-78
2024/01/15 08:05:59;;;;;;;16.13;7.68;;;-0.80;99.90;;;;;;7631378;19;20014;-77
2024/01/15 08:08:31;;;;;;;18.10;7.75;;;-0.80;99.90;;;;;;7629126;19;20014;-78
2024/01/15 08:11:04;;;;;;;21.65;8.30;;;-0.80;99.90;;;;;;7630511;19;20022;-77
2024/01/15 08:13:36;;;;;;;19.17;8.35;;;-0.80;99.90;;;;;;7624842;19;20018;-77
2024/01/15 08:16:09;;;;;;;20.23;7.05;;;-0.80;99.90;;;;;;7627565;19;20018;-79
2024/01/15 08:18:43;;;;;;;17.23;7.65;;;-0.80;99.90;;;;;;7629314;19;20077;-79
2024/01/15 08:21:16;;;;;;;15.57;6.68;;;-1.00;99.90;;;;;;7631567;19;20027;-78
2024/01/15 08:23:49;;;;;;;17.95;7.68;;;-0.70;99.90;;;;;;7631520;19;20366;-77
2024/01/15 08:26:21;;;;;;;15.05;7.07;;;-0.60;99.90;;;;;;7631154;19;20035;-78
2024/01/15 08:28:53;;;;;;;17.88;7.80;;;-0.60;99.90;;;;;;7627788;19;20108;-77
2024/01/15 08:31:26;;;;;;;14.00;6.57;;;-0.50;99.90;;;;;;7631892;19;20015;-76
2024/01/15 08:33:59;;;;;;;15.10;7.10;;;-0.50;99.90;;;;;;7630819;19;20031;-77
2024/01/15 08:36:31;;;;;;;15.68;7.82;;;-0.60;99.90;;;;;;7628792;19;20798;-77
2024/01/15 08:39:04;;;;;;;12.32;5.60;;;-0.60;99.90;;;;;;7632846;19;20011;-78
2024/01/15 08:41:36;;;;;;;17.05;7.72;;;-0.60;99.90;;;;;;7632227;19;20627;-79
2024/01/15 08:44:08;;;;;;;18.23;7.18;;;-0.50;99.90;;;;;;7612789;19;20018;-79
2024/01/15 08:46:40;;;;;;;15.75;7.00;;;-0.60;99.90;;;;;;7597403;19;20018;-77
2024/01/15 08:49:13;;;;;;;16.10;6.70;;;-0.80;99.90;;;;;;7600688;19;20011;-77
2024/01/15 08:51:45;;;;;;;16.33;6.17;;;-0.60;99.90;;;;;;7601039;19;20048;-78
2024/01/15 08:54:18;;;;;;;18.80;7.93;;;-0.60;99.90;;;;;;7598020;19;20039;-79
2024/01/15 08:56:50;;;;;;;19.37;7.53;;;-0.60;99.90;;;;;;7586335;19;20006;-77
2024/01/15 08:59:25;;;;;;;15.50;7.07;;;-0.60;99.90;;;;;;7598621;19;20636;-77
2024/01/15 09:01:57;;;;;;;17.33;8.30;;;-0.60;99.90;;;;;;7604491;19;20812;-76
2024/01/15 09:04:30;;;;;;;17.30;7.95;;;-0.50;99.90;;;;;;7597044;19;20018;-77
2024/01/15 09:07:02;;;;;;;17.27;7.82;;;-0.60;99.90;;;;;;7604687;19;20018;-77
2024/01/15 09:09:34;;;;;;;20.58;9.27;;;-1.80;99.90;;;;;;7599846;19;20049;-76
2024/01/15 09:12:07;;;;;;;25.30;9.40;;;-0.50;99.90;;;;;;7585746;19;20916;-76
2024/01/15 09:14:39;;;;;;;25.30;10.23;;;-0.50;99.90;;;;;;7595543;19;20018;-80
2024/01/15 09:17:12;;;;;;;22.48;9.95;;;-0.50;99.90;;;;;;7562221;19;20374;-79
2024/01/15 09:19:45;;;;;;;27.20;8.57;;;-0.60;99.90;;;;;;7574919;19;20018;-77
2024/01/15 09:22:18;;;;;;;22.60;8.88;;;-0.50;99.90;;;;;;7580903;19;20022;-78
2024/01/15 09:24:50;;;;;;;21.08;9.65;;;-0.50;99.90;;;;;;7601408;19;20093;-78
2024/01/15 09:27:23;;;;;;;24.45;11.40;;;-0.40;99.90;;;;;;7576407;19;20007;-76
2024/01/15 09:29:55;;;;;;;22.52;9.43;;;-0.40;99.90;;;;;;7584501;19;20022;-78
2024/01/15 09:32:27;;;;;;;19.13;8.65;;;-0.30;99.90;;;;;;7579467;19;20358;-77
2024/01/15 09:34:59;;;;;;;21.33;10.15;;;-0.40;99.90;;;;;;7565553;19;20025;-78
2024/01/15 09:37:32;;;;;;;20.65;10.50;;;-0.40;99.90;;;;;;7572236;19;20026;-79
2024/01/15 09:40:21;;;;;;;21.30;8.65;;;-0.40;99.90;;;;;;7587706;19;20882;-78
2024/01/15 09:42:53;;;;;;;18.35;8.93;;;-0.30;99.90;;;;;;7587897;19;20026;-79
2024/01/15 09:45:26;;;;;;;18.23;8.02;;;-0.30;99.90;;;;;;7591158;19;20015;-79
2024/01/15 09:47:59;;;;;;;19.13;9.70;;;-0.20;99.90;;;;;;7586919;19;20021;-79
2024/01/15 09:50:31;;;;;;;17.23;9.47;;;-0.20;99.90;;;;;;7576258;19;20898;-79
2024/01/15 09:53:05;;;;;;;15.57;7.73;;;-0.20;99.90;;;;;;6567435;19;10000446;-78
2024/01/15 09:55:38;;;;;;;14.48;6.07;;;-0.10;99.90;;;;;;7590243;19;20018;-78
2024/01/15 09:58:10;;;;;;;15.50;8.33;;;-0.20;99.90;;;;;;7591066;19;21116;-80
2024/01/15 10:00:43;;;;;;;16.10;7.55;;;0.00;99.90;;;;;;7579311;19;20308;-79
2024/01/15 10:03:16;;;;;;;15.05;7.50;;;0.00;99.90;;;;;;7588390;19;20027;-79
2024/01/15 10:05:49;;;;;;;15.93;7.43;;;0.00;99.90;;;;;;7587284;19;20014;-78
2024/01/15 10:08:23;;;;;;;16.52;6.80;;;0.00;99.90;;;;;;7594883;19;20722;-78
2024/01/15 10:10:55;;;;;;;14.43;7.32;;;0.00;99.90;;;;;;7583575;19;20018;-79
2024/01/15 10:13:30;;;;;;;13.67;7.77;;;0.10;99.90;;;;;;7592845;19;20748;-79
2024/01/15 10:16:03;;;;;;;14.75;7.32;;;0.10;99.90;;;;;;7586471;19;20104;-77
2024/01/15 10:18:36;;;;;;;11.75;6.05;;;0.30;99.90;;;;;;7574690;19;20019;-80
2024/01/15 10:21:09;;;;;;;14.85;6.05;;;0.30;99.90;;;;;;7596817;19;20022;-78
2024/01/15 10:23:41;;;;;;;14.77;6.65;;;0.30;99.90;;;;;;7589008;19;21312;-78
2024/01/15 10:26:13;;;;;;;12.10;5.85;;;0.20;99.90;;;;;;7591711;19;20019;-78
2024/01/15 10:28:52;;;;;;;12.45;6.18;;;0.20;99.90;;;;;;7591471;19;20018;-78
2024/01/15 10:31:26;;;;;;;10.30;5.07;;;0.20;99.90;;;;;;7567357;19;20018;-77
2024/01/15 10:34:15;;;;;;;10.05;5.00;;;0.30;99.90;;;;;;7579070;19;20018;-78
2024/01/15 10:36:52;;;;;;;12.52;5.20;;;0.40;99.90;;;;;;7566869;19;20078;-77
2024/01/15 10:39:25;;;;;;;10.75;5.55;;;0.30;99.90;;;;;;7578169;19;20014;-78
2024/01/15 10:41:57;;;;;;;10.00;4.28;;;0.20;99.90;;;;;;7582584;19;20415;-78
2024/01/15 14:54:47;;;;;;;9.38;4.28;;;0.40;99.90;;;;;;7612150;19;20381;-79
2024/01/15 14:57:21;;;;;;;10.23;4.82;;;0.30;99.90;;;;;;7619417;19;20040;-77
2024/01/15 14:59:53;;;;;;;6.73;3.40;;;0.30;99.90;;;;;;7620393;19;20014;-77
2024/01/15 15:02:28;;;;;;;9.68;4.50;;;0.40;99.90;;;;;;7629271;19;21137;-76
2024/01/15 15:05:03;;;;;;;10.02;4.10;;;0.50;99.90;;;;;;7633552;19;20006;-80
2024/01/15 15:07:36;;;;;;;13.60;4.68;;;0.60;99.90;;;;;;7632668;19;20060;-76
2024/01/15 15:10:11;;;;;;;8.40;3.90;;;0.60;99.90;;;;;;7641074;19;20018;-79
2024/01/15 15:12:44;;;;;;;8.38;4.50;;;0.70;99.90;;;;;;7641429;19;20390;-77
2024/01/15 15:15:17;;;;;;;7.15;4.20;;;0.90;99.90;;;;;;7635685;19;20050;-77
2024/01/15 15:17:53;;;;;;;9.18;4.80;;;0.80;99.90;;;;;;7637824;19;20010;-77
2024/01/15 15:20:25;;;;;;;8.85;4.50;;;0.80;99.90;;;;;;7630212;19;20506;-76
2024/01/15 15:22:58;;;;;;;7.30;3.70;;;0.80;99.90;;;;;;7614348;19;20956;-77
2024/01/15 15:25:30;;;;;;;5.50;2.42;;;0.90;99.90;;;;;;7644990;19;20043;-77
2024/01/15 15:28:08;;;;;;;6.50;3.33;;;0.90;99.90;;;;;;7622022;19;22415;-79
2024/01/15 15:30:42;;;;;;;8.32;3.65;;;0.80;99.90;;;;;;7634910;19;20014;-77
2024/01/15 15:33:15;;;;;;;5.00;3.03;;;0.80;99.90;;;;;;7607373;19;20010;-75
2024/01/15 15:35:51;;;;;;;7.43;3.72;;;0.70;99.90;;;;;;7611804;19;20321;-73
2024/01/15 15:38:23;;;;;;;6.95;4.15;;;0.70;99.90;;;;;;7629890;19;20010;-75
2024/01/15 15:40:55;;;;;;;10.87;4.83;;;0.60;99.90;;;;;;7622869;19;20642;-75
2024/01/15 15:43:29;;;;;;;6.65;3.80;;;0.60;99.90;;;;;;7615978;19;20018;-76
2024/01/15 15:46:01;;;;;;;10.65;4.53;;;0.60;99.90;;;;;;7604819;19;20026;-76
2024/01/15 15:48:34;;;;;;;15.38;6.13;;;0.70;99.90;;;;;;7620642;19;20291;-74
2024/01/15 15:51:06;;;;;;;10.20;5.30;;;0.70;99.90;;;;;;7633809;19;20960;-74
2024/01/15 15:53:38;;;;;;;8.32;4.32;;;-0.30;99.90;;;;;;7627265;19;20018;-74
2024/01/15 15:56:11;;;;;;;12.32;5.28;;;0.60;99.90;;;;;;7618512;19;20048;-73
2024/01/15 15:58:43;;;;;;;12.30;5.03;;;0.60;99.90;;;;;;7625778;19;20489;-76
2024/01/15 16:01:15;;;;;;;8.27;4.97;;;0.50;99.90;;;;;;7596608;19;20029;-74
2024/01/15 16:03:53;;;;;;;8.47;4.47;;;0.50;99.90;;;;;;7614518;19;20390;-73
2024/01/15 16:06:27;;;;;;;8.00;4.90;;;0.50;99.90;;;;;;7598689;19;20014;-75
2024/01/15 16:08:59;;;;;;;10.65;5.07;;;0.40;99.90;;;;;;7598126;19;20010;-75
2024/01/15 16:11:33;;;;;;;10.07;5.70;;;0.40;99.90;;;;;;7602086;19;20068;-77
2024/01/15 16:14:05;;;;;;;12.88;5.32;;;0.30;99.90;;;;;;7606818;19;20018;-76
2024/01/15 16:16:39;;;;;;;11.65;5.65;;;0.30;99.90;;;;;;7590059;19;20053;-76
2024/01/15 16:19:31;;;;;;;10.98;5.53;;;0.30;99.90;;;;;;7592374;19;20018;-76
2024/01/15 16:22:25;;;;;;;9.77;5.05;;;0.30;99.90;;;;;;7577425;19;20524;-74
2024/01/15 16:25:17;;;;;;;13.50;6.60;;;0.30;99.90;;;;;;7585756;19;20010;-75
2024/01/15 16:27:51;;;;;;;16.65;7.18;;;-0.60;99.90;;;;;;7598717;19;20010;-75
2024/01/15 16:30:23;;;;;;;13.02;6.53;;;0.30;99.90;;;;;;7597588;19;20333;-76
2024/01/15 16:33:12;;;;;;;18.40;7.30;;;0.30;99.90;;;;;;7570074;19;20053;-74
2024/01/15 16:35:51;;;;;;;22.00;8.25;;;0.30;99.90;;;;;;7583623;19;20010;-73
2024/01/15 16:38:23;;;;;;;19.77;8.27;;;0.20;99.90;;;;;;7070453;19;10000278;-75
2024/01/15 16:40:56;;;;;;;18.23;8.80;;;0.30;99.90;;;;;;7590543;19;20015;-74
2024/01/15 16:43:29;;;;;;;19.95;8.75;;;0.30;99.90;;;;;;7583658;19;20010;-77
2024/01/15 16:46:01;;;;;;;22.42;8.38;;;2.10;99.90;;;;;;7586057;19;20036;-74
2024/01/15 16:48:35;;;;;;;28.77;13.02;;;0.20;99.90;;;;;;7590808;19;20010;-76
2024/01/15 16:51:07;;;;;;;23.15;10.65;;;0.20;99.90;;;;;;7595339;19;20077;-76
2024/01/15 16:53:40;;;;;;;26.08;12.25;;;0.20;99.90;;;;;;7597674;19;20014;-76
2024/01/15 16:56:13;;;;;;;17.05;8.65;;;0.20;99.90;;;;;;7586800;19;20049;-75
2024/01/15 16:58:47;;;;;;;30.80;11.88;;;0.20;99.90;;;;;;7598331;19;20030;-74
2024/01/15 17:01:19;;;;;;;25.95;10.30;;;0.10;99.90;;;;;;7594241;19;20015;-76
2024/01/15 17:03:52;;;;;;;19.23;9.48;;;0.10;99.90;;;;;;7589164;19;20022;-76
2024/01/15 17:06:24;;;;;;;20.83;10.75;;;0.30;99.90;;;;;;7583796;19;20027;-75
2024/01/15 17:08:57;;;;;;;21.13;10.82;;;0.10;99.90;;;;;;7596685;19;20007;-77
2024/01/15 17:11:29;;;;;;;21.95;10.85;;;-0.20;99.90;;;;;;7582240;19;20011;-76
2024/01/15 17:14:03;;;;;;;25.63;11.25;;;0.20;99.90;;;;;;7592442;19;20010;-78
2024/01/15 17:16:35;;;;;;;26.83;12.02;;;0.10;99.90;;;;;;7569092;19;20002;-75
2024/01/15 17:19:08;;;;;;;27.30;11.30;;;0.10;99.90;;;;;;7587322;19;20018;-76
2024/01/15 17:21:40;;;;;;;25.95;12.10;;;0.10;99.90;;;;;;7594935;19;20033;-76
2024/01/15 17:24:13;;;;;;;22.70;10.05;;;0.10;99.90;;;;;;7595257;19;20026;-75
2024/01/15 17:26:45;;;;;;;24.05;11.02;;;0.20;99.90;;;;;;7574789;19;20010;-75
2024/01/15 17:29:20;;;;;;;24.35;10.80;;;0.10;99.90;;;;;;7596886;19;20014;-74
2024/01/15 17:31:52;;;;;;;25.38;10.75;;;0.10;99.90;;;;;;7591314;19;20023;-74
2024/01/15 17:34:29;;;;;;;28.73;12.32;;;0.10;99.90;;;;;;7594211;19;20015;-74
2024/01/15 17:37:04;;;;;;;28.00;12.60;;;0.00;99.90;;;;;;7587032;19;20018;-75
2024/01/15 17:39:38;;;;;;;30.38;13.23;;;0.10;99.90;;;;;;7595887;19;20035;-74
2024/01/15 17:42:11;;;;;;;28.23;13.27;;;0.00;99.90;;;;;;7601124;19;20620;-74
2024/01/15 17:44:43;;;;;;;23.60;11.55;;;0.10;99.90;;;;;;7595820;19;20011;-75
2024/01/15 17:47:16;;;;;;;28.73;12.80;;;0.10;99.90;;;;;;7582104;19;20046;-76
2024/01/15 17:49:48;;;;;;;29.65;12.32;;;0.10;99.90;;;;;;7605244;19;20038;-78
2024/01/15 17:52:21;;;;;;;28.20;12.85;;;0.20;99.90;;;;;;7596753;19;20030;-78
2024/01/15 17:54:55;;;;;;;12.02;5.57;;;0.10;99.90;;;;;;7600969;19;20018;-77
2024/01/15 17:57:27;;;;;;;18.40;5.50;;;0.00;99.90;;;;;;7598181;19;20019;-75
2024/01/15 18:00:00;;;;;;;13.13;4.85;;;-0.50;99.90;;;;;;7623135;19;20023;-76
2024/01/15 18:02:38;;;;;;;11.10;4.68;;;-0.60;99.90;;;;;;7612374;19;20022;-76
2024/01/15 18:05:11;;;;;;;10.55;5.50;;;-1.10;99.90;;;;;;7614444;19;20932;-78
2024/01/15 18:07:44;;;;;;;13.35;5.97;;;-1.20;99.90;;;;;;7616893;19;20014;-75
2024/01/15 18:10:16;;;;;;;14.10;7.07;;;-1.20;99.90;;;;;;7628782;19;20065;-78
2024/01/15 18:12:49;;;;;;;11.77;6.00;;;-1.30;99.90;;;;;;7620624;19;20036;-77
2024/01/15 18:15:22;;;;;;;17.13;5.60;;;-1.30;99.90;;;;;;7613448;19;20446;-76
2024/01/15 18:17:54;;;;;;;10.73;5.33;;;-1.40;99.90;;;;;;7620828;19;20014;-77
2024/01/15 18:20:27;;;;;;;15.25;8.07;;;-1.40;99.90;;;;;;7622942;19;20723;-77
2024/01/15 18:22:59;;;;;;;15.00;7.30;;;-1.40;99.90;;;;;;7629084;19;20010;-77
2024/01/15 18:25:32;;;;;;;16.27;8.13;;;-1.40;99.90;;;;;;7623779;19;20018;-77
2024/01/15 18:28:05;;;;;;;21.08;9.57;;;-1.40;99.90;;;;;;7614939;19;20128;-77
2024/01/15 18:30:41;;;;;;;19.90;9.20;;;-1.40;99.90;;;;;;7611298;19;20035;-76
2024/01/15 18:33:13;;;;;;;20.33;9.13;;;-1.40;99.90;;;;;;7612579;19;20038;-76
2024/01/15 18:35:46;;;;;;;20.02;10.52;;;-1.40;99.90;;;;;;7607847;19;20090;-76
2024/01/15 18:38:20;;;;;;;20.73;9.85;;;-1.40;99.90;;;;;;7604404;19;20018;-77
2024/01/15 18:40:54;;;;;;;;;;;-1.30;99.90;;;;;;7597251;19;20026;-76
2024/01/15 18:43:30;;;;;;;24.27;11.20;;;-1.40;99.90;;;;;;7600261;19;19927;-77
2024/01/15 18:46:07;;;;;;;24.85;12.45;;;-1.40;99.90;;;;;;7596769;19;20018;-79
2024/01/15 18:48:40;;;;;;;25.92;11.50;;;-1.30;99.90;;;;;;7600980;19;20052;-78
2024/01/15 18:51:23;;;;;;;28.05;12.05;;;-1.30;99.90;;;;;;7594951;19;20028;-75
2024/01/15 18:53:58;;;;;;;23.67;10.90;;;-1.30;99.90;;;;;;7592795;19;20014;-77
2024/01/15 18:56:33;;;;;;;21.98;11.65;;;-1.30;99.90;;;;;;7601963;19;20019;-80
2024/01/15 18:59:06;;;;;;;18.88;9.35;;;-1.30;99.90;;;;;;7606662;19;20082;-77
2024/01/15 19:01:38;;;;;;;19.52;10.20;;;-1.30;99.90;;;;;;7597372;19;20011;-78
2024/01/15 19:04:11;;;;;;;23.13;11.23;;;-1.30;99.90;;;;;;7598721;19;20549;-77
2024/01/15 19:06:44;;;;;;;;;;;-1.30;99.90;;;;;;7599425;19;20756;-77
2024/01/15 19:09:20;;;;;;;18.63;9.63;;;-1.30;99.90;;;;;;7598237;19;20399;-77
2024/01/15 19:11:52;;;;;;;19.25;10.60;;;-1.30;99.90;;;;;;7593764;19;20539;-76
2024/01/15 19:14:25;;;;;;;20.05;10.77;;;-1.40;99.90;;;;;;7595883;19;20019;-77
2024/01/15 19:16:58;;;;;;;16.33;9.13;;;-1.40;99.90;;;;;;7615285;19;20046;-76
2024/01/15 19:19:36;;;;;;;18.55;9.23;;;-1.40;99.90;;;;;;7618250;19;20015;-76
2024/01/15 19:22:09;;;;;;;15.15;7.90;;;-1.40;99.90;;;;;;7623132;19;20010;-75
2024/01/15 19:24:42;;;;;;;17.67;8.65;;;-1.40;99.90;;;;;;7619125;19;20011;-76
2024/01/15 19:27:15;;;;;;;15.93;7.47;;;-1.50;99.90;;;;;;7624727;19;20019;-77
2024/01/15 19:29:47;;;;;;;14.20;8.43;;;-1.50;99.90;;;;;;7597048;19;20034;-79
2024/01/15 19:32:19;;;;;;;15.40;8.98;;;-1.50;99.90;;;;;;7576126;19;21648;-77
2024/01/15 19:34:55;;;;;;;15.48;8.20;;;-1.60;99.90;;;;;;7592063;19;20018;-77
2024/01/15 19:37:27;;;;;;;17.65;9.45;;;-1.50;99.90;;;;;;7580274;19;20023;-76
2024/01/15 19:40:01;;;;;;;16.42;9.25;;;-1.60;99.90;;;;;;7595093;19;20015;-77
2024/01/15 19:42:34;;;;;;;16.35;7.57;;;-1.60;99.90;;;;;;7586211;19;20852;-76
2024/01/15 19:45:07;;;;;;;16.13;7.90;;;-1.60;99.90;;;;;;7598729;19;20027;-76
2024/01/15 19:47:39;;;;;;;12.85;7.85;;;-1.50;99.90;;;;;;7600432;19;20015;-77
2024/01/15 19:50:12;;;;;;;14.15;7.43;;;-1.60;99.90;;;;;;7610309;19;20014;-77
2024/01/15 19:52:44;;;;;;;13.05;7.35;;;-1.60;99.90;;;;;;7599221;19;20010;-78
2024/01/15 19:55:17;;;;;;;16.85;7.85;;;-1.70;99.90;;;;;;7597773;19;20613;-77
2024/01/15 19:57:49;;;;;;;18.10;8.02;;;-1.70;99.90;;;;;;7596322;19;20018;-77
2024/01/15 20:00:22;;;;;;;14.37;7.47;;;-1.70;99.90;;;;;;7590218;19;20026;-76
2024/01/15 20:02:55;;;;;;;18.02;9.10;;;-1.70;99.90;;;;;;7592706;19;20044;-77
2024/01/15 20:05:31;;;;;;;15.70;8.25;;;-1.70;99.90;;;;;;7580226;19;20018;-75
2024/01/15 20:08:04;;;;;;;12.82;7.20;;;-1.70;99.90;;;;;;7608151;19;20018;-76
2024/01/15 20:10:38;;;;;;;12.65;6.85;;;-1.70;99.90;;;;;;7592485;19;20010;-76
2024/01/15 20:13:10;;;;;;;12.93;7.00;;;-1.80;99.90;;;;;;7602689;19;20019;-76
2024/01/15 20:15:43;;;;;;;13.13;7.20;;;-1.80;99.90;;;;;;7583749;19;20018;-76
2024/01/15 20:18:15;;;;;;;11.98;7.05;;;-1.80;99.90;;;;;;7594401;19;20544;-78
2024/01/15 20:20:48;;;;;;;10.73;5.97;;;-1.80;99.90;;;;;;7578981;19;20060;-77
2024/01/15 20:23:20;;;;;;;12.43;7.00;;;-1.80;99.90;;;;;;7589595;19;20018;-77
